sensor_id;sensor_type;location;lat;lon;timestamp;P1;durP1;ratioP1;P2;durP2;ratioP2
52898;SDS011;38763;53.096;6.062;2023-05-20T00:02:03;13.85;;;5.50;;
52898;SDS011;38763;53.096;6.062;2023-05-20T00:04:29;14.90;;;5.30;;
52898;SDS011;38763;53.096;6.062;2023-05-20T00:06:55;15.68;;;5.95;;
52898;SDS011;38763;53.096;6.062;2023-05-20T00:09:21;19.17;;;6.05;;
52898;SDS011;38763;53.096;6.062;2023-05-20T00:11:47;18.65;;;6.03;;
52898;SDS011;38763;53.096;6.062;2023-05-20T00:14:12;18.17;;;6.22;;
52898;SDS011;38763;53.096;6.062;2023-05-20T00:16:38;17.52;;;5.68;;
52898;SDS011;38763;53.096;6.062;2023-05-20T00:19:04;17.83;;;6.05;;
52898;SDS011;38763;53.096;6.062;2023-05-20T00:21:29;17.38;;;6.00;;
52898;SDS011;38763;53.096;6.062;2023-05-20T00:23:55;17.48;;;5.95;;
52898;SDS011;38763;53.096;6.062;2023-05-20T00:26:22;15.48;;;5.80;;
52898;SDS011;38763;53.096;6.062;2023-05-20T00:28:47;17.25;;;6.07;;
52898;SDS011;38763;53.096;6.062;2023-05-20T00:31:13;18.58;;;6.20;;
52898;SDS011;38763;53.096;6.062;2023-05-20T00:33:38;17.55;;;6.03;;
52898;SDS011;38763;53.096;6.062;2023-05-20T00:36:04;17.65;;;6.65;;
52898;SDS011;38763;53.096;6.062;2023-05-20T00:38:30;24.38;;;6.07;;
52898;SDS011;38763;53.096;6.062;2023-05-20T00:40:56;16.05;;;5.72;;
52898;SDS011;38763;53.096;6.062;2023-05-20T00:43:21;18.67;;;6.82;;
52898;SDS011;38763;53.096;6.062;2023-05-20T00:45:49;18.75;;;6.45;;
52898;SDS011;38763;53.096;6.062;2023-05-20T00:48:16;13.77;;;5.82;;
52898;SDS011;38763;53.096;6.062;2023-05-20T00:50:42;15.93;;;6.28;;
52898;SDS011;38763;53.096;6.062;2023-05-20T00:53:08;17.30;;;6.15;;
52898;SDS011;38763;53.096;6.062;2023-05-20T00:55:34;17.70;;;6.35;;
52898;SDS011;38763;53.096;6.062;2023-05-20T00:58:00;20.95;;;6.40;;
52898;SDS011;38763;53.096;6.062;2023-05-20T01:00:26;14.75;;;6.43;;
52898;SDS011;38763;53.096;6.062;2023-05-20T01:02:52;18.48;;;5.97;;
52898;SDS011;38763;53.096;6.062;2023-05-20T01:05:19;18.33;;;6.88;;
52898;SDS011;38763;53.096;6.062;2023-05-20T01:07:45;22.48;;;8.10;;
52898;SDS011;38763;53.096;6.062;2023-05-20T01:10:11;14.77;;;6.13;;
52898;SDS011;38763;53.096;6.062;2023-05-20T01:12:38;18.67;;;6.40;;
52898;SDS011;38763;53.096;6.062;2023-05-20T01:15:10;17.42;;;6.22;;
52898;SDS011;38763;53.096;6.062;2023-05-20T01:17:40;17.77;;;5.93;;
52898;SDS011;38763;53.096;6.062;2023-05-20T01:20:10;16.27;;;5.95;;
52898;SDS011;38763;53.096;6.062;2023-05-20T01:22:54;16.00;;;6.38;;
52898;SDS011;38763;53.096;6.062;2023-05-20T01:25:21;17.95;;;7.10;;
52898;SDS011;38763;53.096;6.062;2023-05-20T01:27:48;14.30;;;6.35;;
52898;SDS011;38763;53.096;6.062;2023-05-20T01:30:15;15.18;;;6.38;;
52898;SDS011;38763;53.096;6.062;2023-05-20T01:32:49;17.35;;;6.32;;
52898;SDS011;38763;53.096;6.062;2023-05-20T01:35:18;20.27;;;6.93;;
52898;SDS011;38763;53.096;6.062;2023-05-20T01:37:45;17.27;;;6.30;;
52898;SDS011;38763;53.096;6.062;2023-05-20T01:40:13;20.30;;;6.53;;
52898;SDS011;38763;53.096;6.062;2023-05-20T01:42:40;14.02;;;6.07;;
52898;SDS011;38763;53.096;6.062;2023-05-20T01:45:08;14.88;;;6.25;;
52898;SDS011;38763;53.096;6.062;2023-05-20T01:47:34;16.70;;;6.63;;
52898;SDS011;38763;53.096;6.062;2023-05-20T01:49:59;20.55;;;6.78;;
52898;SDS011;38763;53.096;6.062;2023-05-20T01:52:25;13.43;;;6.25;;
52898;SDS011;38763;53.096;6.062;2023-05-20T01:54:51;17.63;;;6.47;;
52898;SDS011;38763;53.096;6.062;2023-05-20T01:57:17;17.77;;;6.60;;
52898;SDS011;38763;53.096;6.062;2023-05-20T01:59:46;14.15;;;6.05;;
52898;SDS011;38763;53.096;6.062;2023-05-20T02:02:12;15.48;;;6.25;;
52898;SDS011;38763;53.096;6.062;2023-05-20T02:04:38;16.90;;;6.25;;
52898;SDS011;38763;53.096;6.062;2023-05-20T02:07:06;15.10;;;6.90;;
52898;SDS011;38763;53.096;6.062;2023-05-20T02:09:32;18.73;;;6.45;;
52898;SDS011;38763;53.096;6.062;2023-05-20T02:11:58;21.90;;;6.93;;
52898;SDS011;38763;53.096;6.062;2023-05-20T02:14:23;16.55;;;7.03;;
52898;SDS011;38763;53.096;6.062;2023-05-20T02:16:49;17.40;;;7.15;;
52898;SDS011;38763;53.096;6.062;2023-05-20T02:19:14;16.83;;;6.78;;
52898;SDS011;38763;53.096;6.062;2023-05-20T02:21:47;15.80;;;6.70;;
52898;SDS011;38763;53.096;6.062;2023-05-20T02:24:13;15.07;;;6.55;;
52898;SDS011;38763;53.096;6.062;2023-05-20T02:26:38;16.45;;;6.57;;
52898;SDS011;38763;53.096;6.062;2023-05-20T02:29:04;18.10;;;6.97;;
52898;SDS011;38763;53.096;6.062;2023-05-20T02:31:30;14.85;;;6.60;;
52898;SDS011;38763;53.096;6.062;2023-05-20T02:33:55;15.75;;;6.80;;
52898;SDS011;38763;53.096;6.062;2023-05-20T02:36:21;14.65;;;7.00;;
52898;SDS011;38763;53.096;6.062;2023-05-20T02:38:47;17.27;;;6.38;;
52898;SDS011;38763;53.096;6.062;2023-05-20T02:41:12;20.77;;;6.30;;
52898;SDS011;38763;53.096;6.062;2023-05-20T02:43:38;17.77;;;6.60;;
52898;SDS011;38763;53.096;6.062;2023-05-20T02:46:04;16.77;;;6.95;;
52898;SDS011;38763;53.096;6.062;2023-05-20T02:48:30;20.80;;;7.85;;
52898;SDS011;38763;53.096;6.062;2023-05-20T02:50:58;15.05;;;6.60;;
52898;SDS011;38763;53.096;6.062;2023-05-20T02:53:24;14.60;;;6.25;;
52898;SDS011;38763;53.096;6.062;2023-05-20T02:55:50;15.82;;;6.53;;
52898;SDS011;38763;53.096;6.062;2023-05-20T02:58:15;14.82;;;6.25;;
52898;SDS011;38763;53.096;6.062;2023-05-20T03:00:41;16.38;;;6.65;;
52898;SDS011;38763;53.096;6.062;2023-05-20T03:03:07;17.25;;;6.68;;
52898;SDS011;38763;53.096;6.062;2023-05-20T03:05:37;17.75;;;6.70;;
52898;SDS011;38763;53.096;6.062;2023-05-20T03:08:07;17.05;;;6.50;;
52898;SDS011;38763;53.096;6.062;2023-05-20T03:10:34;12.43;;;6.40;;
52898;SDS011;38763;53.096;6.062;2023-05-20T03:13:00;13.75;;;6.18;;
52898;SDS011;38763;53.096;6.062;2023-05-20T03:15:26;16.55;;;6.60;;
52898;SDS011;38763;53.096;6.062;2023-05-20T03:17:51;12.50;;;6.40;;
52898;SDS011;38763;53.096;6.062;2023-05-20T03:20:18;13.15;;;6.40;;
52898;SDS011;38763;53.096;6.062;2023-05-20T03:22:44;16.92;;;7.18;;
52898;SDS011;38763;53.096;6.062;2023-05-20T03:25:10;14.82;;;6.40;;
52898;SDS011;38763;53.096;6.062;2023-05-20T03:27:35;13.63;;;6.82;;
52898;SDS011;38763;53.096;6.062;2023-05-20T03:30:02;11.82;;;6.28;;
52898;SDS011;38763;53.096;6.062;2023-05-20T03:32:29;15.70;;;6.53;;
52898;SDS011;38763;53.096;6.062;2023-05-20T03:34:54;13.88;;;6.25;;
52898;SDS011;38763;53.096;6.062;2023-05-20T03:37:22;12.95;;;6.15;;
52898;SDS011;38763;53.096;6.062;2023-05-20T03:39:48;18.70;;;6.70;;
52898;SDS011;38763;53.096;6.062;2023-05-20T03:42:13;14.00;;;6.55;;
52898;SDS011;38763;53.096;6.062;2023-05-20T03:44:39;13.18;;;5.45;;
52898;SDS011;38763;53.096;6.062;2023-05-20T03:47:05;13.02;;;5.95;;
52898;SDS011;38763;53.096;6.062;2023-05-20T03:49:30;13.98;;;6.00;;
52898;SDS011;38763;53.096;6.062;2023-05-20T03:51:56;13.25;;;5.97;;
52898;SDS011;38763;53.096;6.062;2023-05-20T03:54:22;13.55;;;6.30;;
52898;SDS011;38763;53.096;6.062;2023-05-20T03:56:47;13.07;;;5.80;;
52898;SDS011;38763;53.096;6.062;2023-05-20T03:59:13;10.25;;;5.32;;
52898;SDS011;38763;53.096;6.062;2023-05-20T04:01:39;14.85;;;5.53;;
52898;SDS011;38763;53.096;6.062;2023-05-20T04:04:04;13.27;;;5.70;;
52898;SDS011;38763;53.096;6.062;2023-05-20T04:06:31;13.13;;;5.30;;
52898;SDS011;38763;53.096;6.062;2023-05-20T04:08:57;11.13;;;5.50;;
52898;SDS011;38763;53.096;6.062;2023-05-20T04:11:22;14.55;;;4.72;;
52898;SDS011;38763;53.096;6.062;2023-05-20T04:13:48;9.88;;;4.93;;
52898;SDS011;38763;53.096;6.062;2023-05-20T04:16:13;10.40;;;5.47;;
52898;SDS011;38763;53.096;6.062;2023-05-20T04:18:39;10.32;;;5.35;;
52898;SDS011;38763;53.096;6.062;2023-05-20T04:21:05;11.80;;;5.25;;
52898;SDS011;38763;53.096;6.062;2023-05-20T04:23:32;10.25;;;5.32;;
52898;SDS011;38763;53.096;6.062;2023-05-20T04:25:57;12.57;;;4.80;;
52898;SDS011;38763;53.096;6.062;2023-05-20T04:28:26;13.70;;;4.90;;
52898;SDS011;38763;53.096;6.062;2023-05-20T04:30:59;9.10;;;4.18;;
52898;SDS011;38763;53.096;6.062;2023-05-20T04:33:26;10.38;;;4.57;;
52898;SDS011;38763;53.096;6.062;2023-05-20T04:35:52;10.63;;;4.22;;
52898;SDS011;38763;53.096;6.062;2023-05-20T04:38:22;10.38;;;4.43;;
52898;SDS011;38763;53.096;6.062;2023-05-20T04:40:57;8.50;;;4.18;;
52898;SDS011;38763;53.096;6.062;2023-05-20T04:43:27;7.28;;;3.97;;
52898;SDS011;38763;53.096;6.062;2023-05-20T04:45:55;8.40;;;3.58;;
52898;SDS011;38763;53.096;6.062;2023-05-20T04:48:21;7.47;;;3.47;;
52898;SDS011;38763;53.096;6.062;2023-05-20T04:50:47;7.93;;;3.72;;
52898;SDS011;38763;53.096;6.062;2023-05-20T04:53:19;10.40;;;3.75;;
52898;SDS011;38763;53.096;6.062;2023-05-20T04:55:48;9.85;;;3.95;;
52898;SDS011;38763;53.096;6.062;2023-05-20T04:58:14;8.23;;;3.40;;
52898;SDS011;38763;53.096;6.062;2023-05-20T05:00:41;10.40;;;3.53;;
52898;SDS011;38763;53.096;6.062;2023-05-20T05:03:08;7.78;;;3.60;;
52898;SDS011;38763;53.096;6.062;2023-05-20T05:05:34;8.15;;;3.42;;
52898;SDS011;38763;53.096;6.062;2023-05-20T05:08:03;6.15;;;3.40;;
52898;SDS011;38763;53.096;6.062;2023-05-20T05:10:30;8.80;;;3.47;;
52898;SDS011;38763;53.096;6.062;2023-05-20T05:12:56;6.97;;;3.30;;
52898;SDS011;38763;53.096;6.062;2023-05-20T05:15:22;6.07;;;2.90;;
52898;SDS011;38763;53.096;6.062;2023-05-20T05:17:48;5.40;;;2.90;;
52898;SDS011;38763;53.096;6.062;2023-05-20T05:20:13;7.93;;;3.20;;
52898;SDS011;38763;53.096;6.062;2023-05-20T05:22:39;7.47;;;2.95;;
52898;SDS011;38763;53.096;6.062;2023-05-20T05:25:08;6.93;;;2.90;;
52898;SDS011;38763;53.096;6.062;2023-05-20T05:27:35;7.47;;;3.00;;
52898;SDS011;38763;53.096;6.062;2023-05-20T05:30:01;8.75;;;2.80;;
52898;SDS011;38763;53.096;6.062;2023-05-20T05:32:28;8.95;;;2.80;;
52898;SDS011;38763;53.096;6.062;2023-05-20T05:34:53;4.53;;;2.40;;
52898;SDS011;38763;53.096;6.062;2023-05-20T05:37:19;5.90;;;2.63;;
52898;SDS011;38763;53.096;6.062;2023-05-20T05:39:45;6.72;;;2.63;;
52898;SDS011;38763;53.096;6.062;2023-05-20T05:42:11;6.93;;;3.65;;
52898;SDS011;38763;53.096;6.062;2023-05-20T05:44:37;5.45;;;2.58;;
52898;SDS011;38763;53.096;6.062;2023-05-20T05:47:02;7.43;;;2.55;;
52898;SDS011;38763;53.096;6.062;2023-05-20T05:49:29;6.40;;;2.50;;
52898;SDS011;38763;53.096;6.062;2023-05-20T05:51:55;7.93;;;2.50;;
52898;SDS011;38763;53.096;6.062;2023-05-20T05:54:20;6.10;;;2.28;;
52898;SDS011;38763;53.096;6.062;2023-05-20T05:56:46;6.13;;;2.30;;
52898;SDS011;38763;53.096;6.062;2023-05-20T05:59:12;6.57;;;2.45;;
52898;SDS011;38763;53.096;6.062;2023-05-20T06:01:37;4.30;;;2.13;;
52898;SDS011;38763;53.096;6.062;2023-05-20T06:04:03;5.43;;;2.10;;
52898;SDS011;38763;53.096;6.062;2023-05-20T06:06:29;6.93;;;2.25;;
52898;SDS011;38763;53.096;6.062;2023-05-20T06:08:55;8.95;;;2.28;;
52898;SDS011;38763;53.096;6.062;2023-05-20T06:11:22;5.40;;;2.20;;
52898;SDS011;38763;53.096;6.062;2023-05-20T06:13:48;6.18;;;2.00;;
52898;SDS011;38763;53.096;6.062;2023-05-20T06:16:14;7.60;;;2.30;;
52898;SDS011;38763;53.096;6.062;2023-05-20T06:18:40;4.60;;;1.90;;
52898;SDS011;38763;53.096;6.062;2023-05-20T06:21:06;6.22;;;2.00;;
52898;SDS011;38763;53.096;6.062;2023-05-20T06:23:32;6.22;;;2.00;;
52898;SDS011;38763;53.096;6.062;2023-05-20T06:25:58;5.65;;;2.10;;
52898;SDS011;38763;53.096;6.062;2023-05-20T06:28:25;4.80;;;2.13;;
52898;SDS011;38763;53.096;6.062;2023-05-20T06:30:52;6.82;;;2.20;;
52898;SDS011;38763;53.096;6.062;2023-05-20T06:33:19;7.25;;;1.80;;
52898;SDS011;38763;53.096;6.062;2023-05-20T06:35:51;5.75;;;1.90;;
52898;SDS011;38763;53.096;6.062;2023-05-20T06:38:17;4.05;;;1.67;;
52898;SDS011;38763;53.096;6.062;2023-05-20T06:40:43;4.32;;;1.60;;
52898;SDS011;38763;53.096;6.062;2023-05-20T06:43:09;4.18;;;1.42;;
52898;SDS011;38763;53.096;6.062;2023-05-20T06:45:35;6.50;;;1.80;;
52898;SDS011;38763;53.096;6.062;2023-05-20T06:48:00;3.22;;;1.50;;
52898;SDS011;38763;53.096;6.062;2023-05-20T06:50:26;5.07;;;1.60;;
52898;SDS011;38763;53.096;6.062;2023-05-20T06:52:54;3.05;;;1.50;;
52898;SDS011;38763;53.096;6.062;2023-05-20T06:55:20;4.82;;;1.80;;
52898;SDS011;38763;53.096;6.062;2023-05-20T06:57:45;5.70;;;1.65;;
52898;SDS011;38763;53.096;6.062;2023-05-20T07:00:11;4.75;;;1.80;;
52898;SDS011;38763;53.096;6.062;2023-05-20T07:02:40;4.15;;;1.70;;
52898;SDS011;38763;53.096;6.062;2023-05-20T07:05:07;5.72;;;2.00;;
52898;SDS011;38763;53.096;6.062;2023-05-20T07:07:33;4.50;;;1.90;;
52898;SDS011;38763;53.096;6.062;2023-05-20T07:09:58;5.32;;;1.73;;
52898;SDS011;38763;53.096;6.062;2023-05-20T07:12:24;3.88;;;1.70;;
52898;SDS011;38763;53.096;6.062;2023-05-20T07:14:50;6.20;;;1.50;;
52898;SDS011;38763;53.096;6.062;2023-05-20T07:17:15;4.47;;;1.70;;
52898;SDS011;38763;53.096;6.062;2023-05-20T07:19:41;4.45;;;1.80;;
52898;SDS011;38763;53.096;6.062;2023-05-20T07:22:07;5.38;;;1.60;;
52898;SDS011;38763;53.096;6.062;2023-05-20T07:24:34;3.30;;;1.60;;
52898;SDS011;38763;53.096;6.062;2023-05-20T07:27:00;3.53;;;1.40;;
52898;SDS011;38763;53.096;6.062;2023-05-20T07:29:26;3.25;;;1.38;;
52898;SDS011;38763;53.096;6.062;2023-05-20T07:31:52;3.15;;;1.50;;
52898;SDS011;38763;53.096;6.062;2023-05-20T07:34:18;3.30;;;1.50;;
52898;SDS011;38763;53.096;6.062;2023-05-20T07:36:44;3.80;;;1.25;;
52898;SDS011;38763;53.096;6.062;2023-05-20T07:39:09;3.33;;;1.42;;
52898;SDS011;38763;53.096;6.062;2023-05-20T07:41:36;5.88;;;1.33;;
52898;SDS011;38763;53.096;6.062;2023-05-20T07:44:03;4.15;;;1.35;;
52898;SDS011;38763;53.096;6.062;2023-05-20T07:46:29;2.95;;;1.33;;
52898;SDS011;38763;53.096;6.062;2023-05-20T07:48:55;3.40;;;1.42;;
52898;SDS011;38763;53.096;6.062;2023-05-20T07:51:21;4.25;;;1.23;;
52898;SDS011;38763;53.096;6.062;2023-05-20T07:53:47;2.95;;;1.27;;
52898;SDS011;38763;53.096;6.062;2023-05-20T07:56:13;2.65;;;1.23;;
52898;SDS011;38763;53.096;6.062;2023-05-20T07:58:42;5.55;;;1.20;;
52898;SDS011;38763;53.096;6.062;2023-05-20T08:01:15;3.85;;;1.30;;
52898;SDS011;38763;53.096;6.062;2023-05-20T08:03:41;3.53;;;1.20;;
52898;SDS011;38763;53.096;6.062;2023-05-20T08:06:06;3.90;;;1.30;;
52898;SDS011;38763;53.096;6.062;2023-05-20T08:08:32;3.90;;;1.33;;
52898;SDS011;38763;53.096;6.062;2023-05-20T08:10:58;3.80;;;1.20;;
52898;SDS011;38763;53.096;6.062;2023-05-20T08:13:25;3.08;;;1.30;;
52898;SDS011;38763;53.096;6.062;2023-05-20T08:15:52;7.15;;;1.55;;
52898;SDS011;38763;53.096;6.062;2023-05-20T08:18:18;3.13;;;1.50;;
52898;SDS011;38763;53.096;6.062;2023-05-20T08:20:44;2.90;;;1.40;;
52898;SDS011;38763;53.096;6.062;2023-05-20T08:23:10;3.47;;;1.40;;
52898;SDS011;38763;53.096;6.062;2023-05-20T08:25:36;3.72;;;1.30;;
52898;SDS011;38763;53.096;6.062;2023-05-20T08:28:02;4.47;;;1.40;;
52898;SDS011;38763;53.096;6.062;2023-05-20T08:30:29;6.22;;;1.27;;
52898;SDS011;38763;53.096;6.062;2023-05-20T08:32:55;4.05;;;1.38;;
52898;SDS011;38763;53.096;6.062;2023-05-20T08:35:22;5.60;;;1.40;;
52898;SDS011;38763;53.096;6.062;2023-05-20T08:37:48;4.95;;;1.30;;
52898;SDS011;38763;53.096;6.062;2023-05-20T08:40:14;3.85;;;1.42;;
52898;SDS011;38763;53.096;6.062;2023-05-20T08:42:40;3.35;;;1.40;;
52898;SDS011;38763;53.096;6.062;2023-05-20T08:45:09;4.95;;;1.40;;
52898;SDS011;38763;53.096;6.062;2023-05-20T08:47:37;4.22;;;1.50;;
52898;SDS011;38763;53.096;6.062;2023-05-20T08:50:05;3.30;;;1.35;;
52898;SDS011;38763;53.096;6.062;2023-05-20T08:52:30;5.55;;;1.60;;
52898;SDS011;38763;53.096;6.062;2023-05-20T08:54:59;3.55;;;1.58;;
52898;SDS011;38763;53.096;6.062;2023-05-20T08:57:26;4.07;;;1.30;;
52898;SDS011;38763;53.096;6.062;2023-05-20T08:59:53;3.75;;;1.20;;
52898;SDS011;38763;53.096;6.062;2023-05-20T09:02:20;5.55;;;1.40;;
52898;SDS011;38763;53.096;6.062;2023-05-20T09:04:47;3.67;;;1.40;;
52898;SDS011;38763;53.096;6.062;2023-05-20T09:07:12;5.53;;;1.38;;
52898;SDS011;38763;53.096;6.062;2023-05-20T09:09:38;3.58;;;1.20;;
52898;SDS011;38763;53.096;6.062;2023-05-20T09:12:05;6.18;;;1.52;;
52898;SDS011;38763;53.096;6.062;2023-05-20T09:14:31;3.58;;;1.50;;
52898;SDS011;38763;53.096;6.062;2023-05-20T09:16:56;4.85;;;1.55;;
52898;SDS011;38763;53.096;6.062;2023-05-20T09:19:23;6.30;;;1.67;;
52898;SDS011;38763;53.096;6.062;2023-05-20T09:21:52;7.43;;;1.50;;
52898;SDS011;38763;53.096;6.062;2023-05-20T09:24:22;3.83;;;1.48;;
52898;SDS011;38763;53.096;6.062;2023-05-20T09:26:49;6.43;;;1.50;;
52898;SDS011;38763;53.096;6.062;2023-05-20T09:29:15;5.55;;;1.60;;
52898;SDS011;38763;53.096;6.062;2023-05-20T09:31:40;5.72;;;1.50;;
52898;SDS011;38763;53.096;6.062;2023-05-20T09:34:06;3.65;;;1.50;;
52898;SDS011;38763;53.096;6.062;2023-05-20T09:36:32;3.17;;;1.30;;
52898;SDS011;38763;53.096;6.062;2023-05-20T09:39:00;4.93;;;1.70;;
52898;SDS011;38763;53.096;6.062;2023-05-20T09:41:30;3.67;;;1.50;;
52898;SDS011;38763;53.096;6.062;2023-05-20T09:44:03;3.35;;;1.42;;
52898;SDS011;38763;53.096;6.062;2023-05-20T09:46:31;3.90;;;1.40;;
52898;SDS011;38763;53.096;6.062;2023-05-20T09:48:58;3.63;;;1.50;;
52898;SDS011;38763;53.096;6.062;2023-05-20T09:51:24;8.70;;;1.73;;
52898;SDS011;38763;53.096;6.062;2023-05-20T09:53:51;3.30;;;1.35;;
52898;SDS011;38763;53.096;6.062;2023-05-20T09:56:18;4.65;;;1.48;;
52898;SDS011;38763;53.096;6.062;2023-05-20T09:58:46;5.47;;;1.52;;
52898;SDS011;38763;53.096;6.062;2023-05-20T10:01:13;4.13;;;1.60;;
52898;SDS011;38763;53.096;6.062;2023-05-20T10:03:39;2.85;;;1.38;;
52898;SDS011;38763;53.096;6.062;2023-05-20T10:08:43;3.35;;;1.10;;
52898;SDS011;38763;53.096;6.062;2023-05-20T10:11:55;4.55;;;1.52;;
52898;SDS011;38763;53.096;6.062;2023-05-20T10:14:42;4.32;;;1.50;;
52898;SDS011;38763;53.096;6.062;2023-05-20T10:19:58;3.78;;;1.60;;
52898;SDS011;38763;53.096;6.062;2023-05-20T10:22:28;2.92;;;1.30;;
52898;SDS011;38763;53.096;6.062;2023-05-20T10:24:59;4.18;;;1.40;;
52898;SDS011;38763;53.096;6.062;2023-05-20T10:27:40;5.78;;;1.55;;
52898;SDS011;38763;53.096;6.062;2023-05-20T10:30:14;4.30;;;1.60;;
52898;SDS011;38763;53.096;6.062;2023-05-20T10:32:47;4.65;;;1.60;;
52898;SDS011;38763;53.096;6.062;2023-05-20T10:35:19;4.20;;;1.75;;
52898;SDS011;38763;53.096;6.062;2023-05-20T10:37:46;4.88;;;1.83;;
52898;SDS011;38763;53.096;6.062;2023-05-20T10:40:12;3.88;;;1.60;;
52898;SDS011;38763;53.096;6.062;2023-05-20T10:42:40;4.40;;;1.65;;
52898;SDS011;38763;53.096;6.062;2023-05-20T10:45:06;7.50;;;2.00;;
52898;SDS011;38763;53.096;6.062;2023-05-20T10:47:33;5.35;;;1.70;;
52898;SDS011;38763;53.096;6.062;2023-05-20T10:49:59;5.72;;;1.60;;
52898;SDS011;38763;53.096;6.062;2023-05-20T10:52:37;5.55;;;1.63;;
52898;SDS011;38763;53.096;6.062;2023-05-20T10:55:03;6.30;;;2.05;;
52898;SDS011;38763;53.096;6.062;2023-05-20T10:57:29;3.58;;;1.55;;
52898;SDS011;38763;53.096;6.062;2023-05-20T10:59:56;5.38;;;1.80;;
52898;SDS011;38763;53.096;6.062;2023-05-20T11:02:23;4.38;;;1.63;;
52898;SDS011;38763;53.096;6.062;2023-05-20T11:04:54;4.75;;;1.70;;
52898;SDS011;38763;53.096;6.062;2023-05-20T11:07:29;7.20;;;2.00;;
52898;SDS011;38763;53.096;6.062;2023-05-20T11:09:56;3.45;;;1.65;;
52898;SDS011;38763;53.096;6.062;2023-05-20T11:12:23;3.90;;;1.55;;
52898;SDS011;38763;53.096;6.062;2023-05-20T11:14:49;4.10;;;1.90;;
52898;SDS011;38763;53.096;6.062;2023-05-20T11:17:16;3.40;;;1.67;;
52898;SDS011;38763;53.096;6.062;2023-05-20T11:19:42;5.63;;;1.80;;
52898;SDS011;38763;53.096;6.062;2023-05-20T11:22:08;5.38;;;1.70;;
52898;SDS011;38763;53.096;6.062;2023-05-20T11:24:34;5.80;;;1.80;;
52898;SDS011;38763;53.096;6.062;2023-05-20T11:27:00;5.63;;;2.00;;
52898;SDS011;38763;53.096;6.062;2023-05-20T11:29:26;6.03;;;2.22;;
52898;SDS011;38763;53.096;6.062;2023-05-20T11:31:53;3.97;;;1.80;;
52898;SDS011;38763;53.096;6.062;2023-05-20T11:34:21;6.53;;;2.75;;
52898;SDS011;38763;53.096;6.062;2023-05-20T11:36:47;7.47;;;2.17;;
52898;SDS011;38763;53.096;6.062;2023-05-20T11:39:20;5.65;;;2.20;;
52898;SDS011;38763;53.096;6.062;2023-05-20T11:41:46;5.32;;;2.30;;
52898;SDS011;38763;53.096;6.062;2023-05-20T11:44:12;11.82;;;2.40;;
52898;SDS011;38763;53.096;6.062;2023-05-20T11:46:41;8.63;;;2.50;;
52898;SDS011;38763;53.096;6.062;2023-05-20T11:49:08;7.20;;;2.55;;
52898;SDS011;38763;53.096;6.062;2023-05-20T11:51:34;7.22;;;2.90;;
52898;SDS011;38763;53.096;6.062;2023-05-20T11:54:02;7.78;;;2.70;;
52898;SDS011;38763;53.096;6.062;2023-05-20T11:56:30;8.23;;;2.72;;
52898;SDS011;38763;53.096;6.062;2023-05-20T11:59:01;8.88;;;2.50;;
52898;SDS011;38763;53.096;6.062;2023-05-20T12:01:32;6.45;;;2.72;;
52898;SDS011;38763;53.096;6.062;2023-05-20T12:04:04;7.75;;;2.40;;
52898;SDS011;38763;53.096;6.062;2023-05-20T12:06:31;11.27;;;3.03;;
52898;SDS011;38763;53.096;6.062;2023-05-20T12:08:59;8.13;;;2.50;;
52898;SDS011;38763;53.096;6.062;2023-05-20T12:11:29;8.38;;;2.55;;
52898;SDS011;38763;53.096;6.062;2023-05-20T12:13:54;5.15;;;2.10;;
52898;SDS011;38763;53.096;6.062;2023-05-20T12:16:20;7.68;;;2.35;;
52898;SDS011;38763;53.096;6.062;2023-05-20T12:18:45;6.80;;;2.50;;
52898;SDS011;38763;53.096;6.062;2023-05-20T12:21:11;5.25;;;2.20;;
52898;SDS011;38763;53.096;6.062;2023-05-20T12:23:37;6.03;;;2.63;;
52898;SDS011;38763;53.096;6.062;2023-05-20T12:26:02;9.13;;;2.63;;
52898;SDS011;38763;53.096;6.062;2023-05-20T12:28:29;8.93;;;2.28;;
52898;SDS011;38763;53.096;6.062;2023-05-20T12:30:56;4.35;;;2.22;;
52898;SDS011;38763;53.096;6.062;2023-05-20T12:33:21;6.70;;;2.83;;
52898;SDS011;38763;53.096;6.062;2023-05-20T12:35:47;8.20;;;2.65;;
52898;SDS011;38763;53.096;6.062;2023-05-20T12:38:13;6.25;;;2.78;;
52898;SDS011;38763;53.096;6.062;2023-05-20T12:40:38;8.23;;;2.80;;
52898;SDS011;38763;53.096;6.062;2023-05-20T12:43:04;10.30;;;2.63;;
52898;SDS011;38763;53.096;6.062;2023-05-20T12:45:30;6.57;;;3.15;;
52898;SDS011;38763;53.096;6.062;2023-05-20T12:47:56;6.88;;;2.58;;
52898;SDS011;38763;53.096;6.062;2023-05-20T12:50:23;7.05;;;2.63;;
52898;SDS011;38763;53.096;6.062;2023-05-20T12:52:49;8.90;;;2.67;;
52898;SDS011;38763;53.096;6.062;2023-05-20T12:55:15;7.47;;;2.58;;
52898;SDS011;38763;53.096;6.062;2023-05-20T12:57:44;8.02;;;2.75;;
52898;SDS011;38763;53.096;6.062;2023-05-20T13:00:11;10.50;;;2.63;;
52898;SDS011;38763;53.096;6.062;2023-05-20T13:02:38;9.23;;;2.55;;
52898;SDS011;38763;53.096;6.062;2023-05-20T13:05:06;5.93;;;2.60;;
52898;SDS011;38763;53.096;6.062;2023-05-20T13:07:32;8.43;;;2.53;;
52898;SDS011;38763;53.096;6.062;2023-05-20T13:09:58;7.07;;;2.85;;
52898;SDS011;38763;53.096;6.062;2023-05-20T13:12:23;8.23;;;2.70;;
52898;SDS011;38763;53.096;6.062;2023-05-20T13:14:49;5.60;;;2.97;;
52898;SDS011;38763;53.096;6.062;2023-05-20T13:17:16;9.70;;;2.95;;
52898;SDS011;38763;53.096;6.062;2023-05-20T13:19:42;6.03;;;2.70;;
52898;SDS011;38763;53.096;6.062;2023-05-20T13:22:09;6.85;;;2.50;;
52898;SDS011;38763;53.096;6.062;2023-05-20T13:24:35;6.57;;;2.40;;
52898;SDS011;38763;53.096;6.062;2023-05-20T13:27:02;8.23;;;2.63;;
52898;SDS011;38763;53.096;6.062;2023-05-20T13:29:27;7.30;;;2.95;;
52898;SDS011;38763;53.096;6.062;2023-05-20T13:31:53;9.02;;;2.65;;
52898;SDS011;38763;53.096;6.062;2023-05-20T13:34:19;8.45;;;2.90;;
52898;SDS011;38763;53.096;6.062;2023-05-20T13:36:44;8.25;;;3.00;;
52898;SDS011;38763;53.096;6.062;2023-05-20T13:39:12;7.22;;;3.00;;
52898;SDS011;38763;53.096;6.062;2023-05-20T13:41:39;8.13;;;3.08;;
52898;SDS011;38763;53.096;6.062;2023-05-20T13:44:05;4.72;;;2.70;;
52898;SDS011;38763;53.096;6.062;2023-05-20T13:46:31;8.98;;;3.13;;
52898;SDS011;38763;53.096;6.062;2023-05-20T13:48:56;5.43;;;2.65;;
52898;SDS011;38763;53.096;6.062;2023-05-20T13:51:22;5.53;;;2.58;;
52898;SDS011;38763;53.096;6.062;2023-05-20T13:53:48;6.53;;;3.08;;
52898;SDS011;38763;53.096;6.062;2023-05-20T13:56:13;8.13;;;3.22;;
52898;SDS011;38763;53.096;6.062;2023-05-20T13:58:39;7.75;;;3.08;;
52898;SDS011;38763;53.096;6.062;2023-05-20T14:01:05;8.35;;;2.90;;
52898;SDS011;38763;53.096;6.062;2023-05-20T14:03:31;6.95;;;2.85;;
52898;SDS011;38763;53.096;6.062;2023-05-20T14:05:58;7.60;;;3.28;;
52898;SDS011;38763;53.096;6.062;2023-05-20T14:08:24;5.93;;;3.17;;
52898;SDS011;38763;53.096;6.062;2023-05-20T14:10:50;10.68;;;2.90;;
52898;SDS011;38763;53.096;6.062;2023-05-20T14:13:19;7.88;;;2.83;;
52898;SDS011;38763;53.096;6.062;2023-05-20T14:15:48;7.43;;;2.85;;
52898;SDS011;38763;53.096;6.062;2023-05-20T14:18:17;8.52;;;2.72;;
52898;SDS011;38763;53.096;6.062;2023-05-20T14:20:43;11.05;;;3.10;;
52898;SDS011;38763;53.096;6.062;2023-05-20T14:23:09;8.23;;;3.00;;
52898;SDS011;38763;53.096;6.062;2023-05-20T14:25:36;7.05;;;2.78;;
52898;SDS011;38763;53.096;6.062;2023-05-20T14:28:01;7.30;;;2.88;;
52898;SDS011;38763;53.096;6.062;2023-05-20T14:30:27;8.95;;;3.25;;
52898;SDS011;38763;53.096;6.062;2023-05-20T14:32:53;8.63;;;3.30;;
52898;SDS011;38763;53.096;6.062;2023-05-20T14:35:19;8.73;;;3.08;;
52898;SDS011;38763;53.096;6.062;2023-05-20T14:37:45;8.07;;;2.90;;
52898;SDS011;38763;53.096;6.062;2023-05-20T14:40:11;6.75;;;2.97;;
52898;SDS011;38763;53.096;6.062;2023-05-20T14:42:37;7.53;;;3.00;;
52898;SDS011;38763;53.096;6.062;2023-05-20T14:45:03;7.28;;;2.90;;
52898;SDS011;38763;53.096;6.062;2023-05-20T14:47:29;8.27;;;3.00;;